Accueil
METAR-TAF:

METAR-TAF

Aéroports :

Sapporo, Japon

latitude: 43-07N, longitude: 141-23E, altitude: 8 m

Observation

Le bulletin a été fait il y a 47 minutes, à 11:00 UTC
Vent 3 kt de nord/nord-ouest
Température 21°C
Humidité 88%
Pression 1018 hPa
Visibilité 10 km ou plus
Quelques nuages à une hauteur de 5000 ft

METAR: RJCO 151100Z 33003KT 9999 FEW050 21/19 Q1018

Heure: 20:47 (11:47 UTC)


TAF: absent

Observations et prévisions météorologiques de plus de 4000 aéroports (messages METAR et TAF).

Les stations disponibles sont représentées par des disques jaunes et rouges sur la carte.

Passer la souris dessus pour voir le nom de la station.

Cliquer dessus pour voir les observations et prévisions météorologiques.

Pour changer de carte: cliquez sur les boutons verts avec une croix noire pour zoomer, sur le bouton vert avec un tiret pour effectuer un zoom arrière, ou sur les flèches vertes pour les cartes adjacentes.


METAR-TAF: